createdAt,value
2023-11-29T00:00:19.965Z,-0.51
2023-11-29T00:05:46.034Z,-1.52
2023-11-29T00:10:49.723Z,0.03
2023-11-29T00:15:52.623Z,1.50
2023-11-29T00:20:55.428Z,1.75
2023-11-29T00:25:58.542Z,-0.06
2023-11-29T00:31:01.454Z,-1.26
2023-11-29T00:36:04.860Z,-1.44
2023-11-29T00:41:07.727Z,1.34
2023-11-29T00:46:10.572Z,3.48
2023-11-29T00:51:13.777Z,2.30
2023-11-29T00:56:16.701Z,-0.07
2023-11-29T01:01:19.711Z,0.00
2023-11-29T01:06:23.110Z,2.79
2023-11-29T01:11:26.041Z,2.72
2023-11-29T01:16:29.013Z,-0.05
2023-11-29T01:21:35.656Z,-1.65
2023-11-29T01:26:40.630Z,-0.63
2023-11-29T01:31:43.578Z,1.11
2023-11-29T01:36:46.477Z,2.13
2023-11-29T01:41:49.308Z,1.86
2023-11-29T01:46:52.496Z,-0.39
2023-11-29T01:51:55.392Z,-1.49
2023-11-29T01:56:58.637Z,0.21
2023-11-29T02:02:02.039Z,1.74
2023-11-29T02:07:05.334Z,2.13
2023-11-29T02:12:08.856Z,0.27
2023-11-29T02:17:11.792Z,-0.69
2023-11-29T02:22:15.522Z,0.80
2023-11-29T02:27:18.387Z,1.60
2023-11-29T02:32:21.696Z,2.13
2023-11-29T02:37:24.700Z,1.35
2023-11-29T02:42:27.610Z,-0.80
2023-11-29T02:47:30.521Z,-1.36
2023-11-29T02:52:33.519Z,0.30
2023-11-29T02:57:36.833Z,1.40
2023-11-29T03:02:39.732Z,2.07
2023-11-29T03:07:42.756Z,2.00
2023-11-29T03:12:45.648Z,-0.19
2023-11-29T03:17:48.610Z,-0.37
2023-11-29T03:22:51.557Z,1.22
2023-11-29T03:27:54.973Z,2.18
2023-11-29T03:32:57.954Z,1.96
2023-11-29T03:38:00.886Z,-0.19
2023-11-29T03:43:03.928Z,-0.52
2023-11-29T03:48:08.171Z,0.98
2023-11-29T03:53:11.251Z,1.99
2023-11-29T03:58:14.653Z,2.65
2023-11-29T04:03:17.614Z,1.99
2023-11-29T04:08:20.953Z,-0.27
2023-11-29T04:13:23.876Z,-1.73
2023-11-29T04:18:26.798Z,-1.73
2023-11-29T04:23:29.708Z,0.17
2023-11-29T04:28:32.945Z,1.24
2023-11-29T04:33:36.361Z,1.82
2023-11-29T04:38:39.624Z,1.42
2023-11-29T04:43:42.945Z,-0.97
2023-11-29T04:48:46.522Z,-2.27
2023-11-29T04:53:49.565Z,-1.10
2023-11-29T04:58:52.992Z,0.20
2023-11-29T05:03:56.233Z,0.96
2023-11-29T05:09:00.200Z,1.37
2023-11-29T05:14:04.147Z,-0.18
2023-11-29T05:19:07.851Z,-2.25
2023-11-29T05:24:11.499Z,-3.36
2023-11-29T05:29:14.344Z,-1.84
2023-11-29T05:34:17.306Z,-0.36
2023-11-29T05:39:21.235Z,0.50
2023-11-29T05:44:24.160Z,0.98
2023-11-29T05:49:27.153Z,-0.09
2023-11-29T05:54:30.561Z,-2.26
2023-11-29T05:59:33.526Z,-3.24
2023-11-29T06:04:36.504Z,-1.44
2023-11-29T06:09:40.633Z,0.02
2023-11-29T06:14:43.858Z,0.59
2023-11-29T06:19:46.825Z,-0.21
2023-11-29T06:24:49.640Z,-2.34
2023-11-29T06:29:53.545Z,-3.67
2023-11-29T06:34:57.927Z,-2.92
2023-11-29T06:40:01.211Z,-0.86
2023-11-29T06:45:04.952Z,0.04
2023-11-29T06:50:08.271Z,0.73
2023-11-29T06:55:11.587Z,-0.29
2023-11-29T07:00:18.418Z,-1.99
2023-11-29T07:05:21.900Z,-2.99
2023-11-29T07:10:24.982Z,-2.75
2023-11-29T07:15:27.856Z,-0.43
2023-11-29T07:20:37.938Z,1.77
2023-11-29T07:25:46.602Z,2.67
2023-11-29T07:30:51.138Z,2.45
2023-11-29T07:35:54.277Z,3.64
2023-11-29T07:40:57.160Z,3.82
2023-11-29T07:46:00.233Z,4.04
2023-11-29T07:51:03.497Z,5.81
2023-11-29T07:56:07.523Z,6.65
2023-11-29T08:01:10.412Z,9.57
2023-11-29T08:06:14.277Z,10.72
2023-11-29T08:11:17.569Z,10.42
2023-11-29T08:16:20.962Z,10.65
2023-11-29T08:21:23.982Z,11.33
2023-11-29T08:26:27.451Z,11.39
2023-11-29T08:31:30.579Z,11.53
2023-11-29T08:36:33.358Z,11.29
2023-11-29T08:41:36.318Z,11.56
2023-11-29T08:46:39.290Z,11.90
2023-11-29T08:51:42.689Z,11.95
2023-11-29T08:56:45.614Z,12.16
2023-11-29T09:01:48.680Z,12.14
2023-11-29T09:06:51.759Z,12.64
2023-11-29T09:11:55.099Z,13.13
2023-11-29T09:16:58.145Z,13.14
2023-11-29T09:22:01.858Z,13.02
2023-11-29T09:27:06.029Z,12.76
2023-11-29T09:32:08.909Z,12.82
2023-11-29T09:37:11.830Z,13.11
2023-11-29T09:42:14.659Z,13.50
2023-11-29T09:47:18.528Z,14.09
2023-11-29T09:52:22.441Z,13.62
2023-11-29T09:57:25.309Z,13.63
2023-11-29T10:02:28.903Z,13.28
2023-11-29T10:07:32.793Z,13.08
2023-11-29T10:12:42.038Z,13.80
2023-11-29T10:17:46.382Z,14.21
2023-11-29T10:22:50.708Z,14.57
2023-11-29T10:27:53.704Z,14.89
2023-11-29T10:32:56.957Z,14.43
2023-11-29T10:38:04.957Z,14.14
2023-11-29T10:43:10.905Z,14.65
2023-11-29T10:48:17.792Z,15.03
2023-11-29T10:53:21.221Z,14.06
2023-11-29T10:58:24.836Z,13.70
2023-11-29T11:03:44.882Z,13.83
2023-11-29T11:08:48.024Z,14.78
2023-11-29T11:13:52.224Z,15.00
2023-11-29T11:18:56.533Z,14.87
2023-11-29T11:24:01.825Z,15.09
2023-11-29T11:29:05.818Z,14.59
2023-11-29T11:34:08.719Z,13.75
2023-11-29T11:39:11.627Z,12.91
2023-11-29T11:44:14.738Z,12.85
2023-11-29T11:49:17.519Z,12.88
2023-11-29T11:54:21.264Z,12.93
2023-11-29T11:59:24.290Z,13.31
2023-11-29T12:04:28.050Z,13.79
2023-11-29T12:09:31.303Z,13.31
2023-11-29T12:14:34.168Z,12.45
2023-11-29T12:19:37.314Z,11.58
2023-11-29T12:24:47.813Z,10.88
2023-11-29T12:29:52.935Z,10.57
2023-11-29T12:34:57.806Z,10.27
2023-11-29T12:40:00.621Z,9.50
2023-11-29T12:45:03.860Z,8.60
2023-11-29T12:50:07.466Z,7.98
2023-11-29T12:55:10.466Z,7.10
2023-11-29T13:00:14.645Z,6.79
2023-11-29T13:05:17.694Z,6.68
2023-11-29T13:10:20.541Z,6.57
2023-11-29T13:15:23.514Z,6.36
2023-11-29T13:20:27.710Z,6.22
2023-11-29T13:25:31.810Z,6.11
2023-11-29T13:30:34.673Z,5.65
2023-11-29T13:35:37.628Z,5.40
2023-11-29T13:40:41.684Z,4.51
2023-11-29T13:45:44.790Z,3.62
2023-11-29T13:50:47.830Z,2.57
2023-11-29T13:55:50.834Z,1.34
2023-11-29T14:00:53.744Z,-0.00
2023-11-29T14:05:59.373Z,-1.33
2023-11-29T14:11:02.258Z,-2.22
2023-11-29T14:16:05.427Z,-2.94
2023-11-29T14:21:09.177Z,-3.42
2023-11-29T14:26:13.097Z,-3.82
2023-11-29T14:31:16.827Z,-4.11
2023-11-29T14:36:19.704Z,-4.36
2023-11-29T14:41:28.736Z,-4.51
2023-11-29T14:46:31.864Z,-4.59
2023-11-29T14:51:35.072Z,-3.51
2023-11-29T14:56:38.797Z,0.08
2023-11-29T15:01:41.935Z,2.58
2023-11-29T15:06:45.492Z,2.65
2023-11-29T15:11:53.920Z,0.26
2023-11-29T15:16:56.978Z,-1.34
2023-11-29T15:22:00.975Z,-2.29
2023-11-29T15:27:04.642Z,-2.86
2023-11-29T15:32:08.854Z,-3.19
2023-11-29T15:37:11.757Z,-3.38
2023-11-29T15:42:14.774Z,-2.29
2023-11-29T15:47:17.770Z,0.34
2023-11-29T15:52:20.880Z,0.13
2023-11-29T15:57:23.781Z,-1.32
2023-11-29T16:02:26.761Z,-2.11
2023-11-29T16:07:30.633Z,-0.52
2023-11-29T16:12:34.044Z,0.42
2023-11-29T16:17:36.990Z,-1.06
2023-11-29T16:22:40.258Z,-0.96
2023-11-29T16:27:43.844Z,-0.11
2023-11-29T16:32:47.134Z,-1.30
2023-11-29T16:37:50.304Z,-0.96
2023-11-29T16:42:53.200Z,0.90
2023-11-29T16:47:56.292Z,1.75
2023-11-29T16:52:59.317Z,0.38
2023-11-29T16:58:02.223Z,-1.07
2023-11-29T17:03:16.250Z,-1.96
2023-11-29T17:08:19.945Z,-2.53
2023-11-29T17:13:22.811Z,-2.92
2023-11-29T17:18:25.822Z,-1.74
2023-11-29T17:23:29.539Z,0.43
2023-11-29T17:28:32.966Z,1.75
2023-11-29T17:33:36.009Z,1.40
2023-11-29T17:38:39.302Z,-0.36
2023-11-29T17:43:42.208Z,-1.40
2023-11-29T17:48:45.199Z,-1.82
2023-11-29T17:53:48.220Z,0.67
2023-11-29T17:58:51.104Z,2.86
2023-11-29T18:03:54.032Z,2.34
2023-11-29T18:08:58.815Z,0.23
2023-11-29T18:14:01.701Z,-1.02
2023-11-29T18:19:04.979Z,-1.77
2023-11-29T18:24:08.556Z,-2.31
2023-11-29T18:29:11.464Z,-2.39
2023-11-29T18:34:14.811Z,0.32
2023-11-29T18:39:20.539Z,1.52
2023-11-29T18:44:23.489Z,0.28
2023-11-29T18:49:27.627Z,-1.23
2023-11-29T18:54:30.632Z,-1.56
2023-11-29T18:59:35.085Z,0.42
2023-11-29T19:04:38.166Z,0.21
2023-11-29T19:09:41.703Z,-1.33
2023-11-29T19:14:44.625Z,-1.14
2023-11-29T19:19:47.501Z,0.65
2023-11-29T19:24:50.422Z,1.02
2023-11-29T19:29:53.272Z,-0.67
2023-11-29T19:34:56.325Z,-1.01
2023-11-29T19:39:59.260Z,0.67
2023-11-29T19:45:02.022Z,1.43
2023-11-29T19:50:05.238Z,-0.06
2023-11-29T19:55:08.616Z,-1.22
2023-11-29T20:00:12.013Z,-1.88
2023-11-29T20:05:15.079Z,-2.04
2023-11-29T20:10:18.039Z,0.24
2023-11-29T20:15:22.232Z,2.10
2023-11-29T20:20:35.330Z,3.26
2023-11-29T20:25:44.311Z,3.71
2023-11-29T20:30:48.295Z,1.96
2023-11-29T20:35:53.193Z,0.37
2023-11-29T20:40:56.243Z,-0.61
2023-11-29T20:45:59.096Z,-1.31
2023-11-29T20:51:02.419Z,-1.86
2023-11-29T20:56:06.030Z,-1.00
2023-11-29T21:01:09.250Z,1.15
2023-11-29T21:06:12.173Z,1.81
2023-11-29T21:11:19.157Z,0.33
2023-11-29T21:16:22.194Z,-0.88
2023-11-29T21:21:25.301Z,-1.31
2023-11-29T21:26:28.293Z,0.31
2023-11-29T21:31:33.218Z,0.74
2023-11-29T21:36:38.081Z,-0.71
2023-11-29T21:41:41.148Z,-0.65
2023-11-29T21:46:46.449Z,1.10
2023-11-29T21:51:49.362Z,0.77
2023-11-29T21:56:52.228Z,-0.71
2023-11-29T22:01:55.242Z,-0.17
2023-11-29T22:06:58.271Z,1.41
2023-11-29T22:12:01.213Z,1.07
2023-11-29T22:17:04.189Z,-0.63
2023-11-29T22:22:07.110Z,-0.11
2023-11-29T22:27:10.902Z,1.56
2023-11-29T22:32:14.010Z,1.34
2023-11-29T22:37:17.035Z,-0.40
2023-11-29T22:42:20.002Z,0.24
2023-11-29T22:47:23.054Z,1.76
2023-11-29T22:52:25.945Z,1.14
2023-11-29T22:57:28.885Z,-0.38
2023-11-29T23:02:31.981Z,0.60
2023-11-29T23:07:34.961Z,1.89
2023-11-29T23:12:37.876Z,0.47
2023-11-29T23:17:40.845Z,-0.71
2023-11-29T23:22:43.781Z,1.12
2023-11-29T23:27:47.096Z,1.67
2023-11-29T23:32:50.177Z,-0.15
2023-11-29T23:37:53.102Z,-0.02
2023-11-29T23:42:55.913Z,1.85
2023-11-29T23:47:58.939Z,1.19
2023-11-29T23:53:02.065Z,-0.47
2023-11-29T23:58:05.145Z,-0.29
